Time;durP1;ratioP1;P1;durP2;ratioP2;P2;SDS_P1;SDS_P2;PMS_P1;PMS_P2;Temp;Humidity;BMP_temperature;BMP_pressure;BME280_temperature;BME280_humidity;BME280_pressure;Samples;Min_cycle;Max_cycle;Signal;HPM_P1;HPM_P2
2024/02/20 00:01:55;;;;;;;24.27;4.25;;;;;;;5.94;100.00;102432.53;5046733;28;20511;-77
2024/02/20 00:04:21;;;;;;;30.40;5.70;;;;;;;5.94;100.00;102429.13;5046260;28;20032;-78
2024/02/20 00:06:47;;;;;;;33.55;4.57;;;;;;;5.88;100.00;102432.88;5028548;28;20045;-78
2024/02/20 00:09:12;;;;;;;33.63;4.88;;;;;;;5.84;100.00;102434.81;5031359;28;20037;-78
2024/02/20 00:11:38;;;;;;;36.63;4.15;;;;;;;5.85;100.00;102435.63;5011966;28;20040;-78
2024/02/20 00:14:03;;;;;;;21.70;4.10;;;;;;;5.76;100.00;102439.53;5028731;28;20396;-77
2024/02/20 00:16:29;;;;;;;34.95;4.25;;;;;;;5.80;100.00;102448.75;5030558;28;20052;-78
2024/02/20 00:18:55;;;;;;;39.80;5.45;;;;;;;5.76;100.00;102447.25;5029425;28;20025;-78
2024/02/20 00:21:20;;;;;;;30.48;4.97;;;;;;;5.77;100.00;102443.78;5028035;28;20052;-77
2024/02/20 00:23:46;;;;;;;38.33;5.47;;;;;;;5.69;100.00;102447.66;5046093;28;20047;-78
2024/02/20 00:26:11;;;;;;;42.70;4.90;;;;;;;5.66;100.00;102452.06;5026942;28;20045;-78
2024/02/20 00:28:40;;;;;;;29.95;4.32;;;;;;;5.61;100.00;102451.50;5044271;28;20045;-78
2024/02/20 00:31:09;;;;;;;38.03;6.30;;;;;;;5.70;100.00;102457.06;5029502;28;20049;-78
2024/02/20 00:33:34;;;;;;;28.75;6.22;;;;;;;5.66;100.00;102458.97;5047778;28;20567;-78
2024/02/20 00:36:05;;;;;;;34.80;5.35;;;;;;;5.56;100.00;102453.50;5026023;28;20116;-78
2024/02/20 00:38:31;;;;;;;27.08;5.60;;;;;;;5.60;100.00;102451.59;5029135;28;20071;-78
2024/02/20 00:40:57;;;;;;;31.10;4.85;;;;;;;5.52;100.00;102451.16;5044141;28;20044;-78
2024/02/20 00:43:22;;;;;;;21.88;4.65;;;;;;;5.49;100.00;102457.31;5028998;28;20013;-77
2024/02/20 00:45:48;;;;;;;28.73;5.18;;;;;;;5.52;100.00;102456.31;5027819;28;20056;-78
2024/02/20 00:48:14;;;;;;;27.15;5.95;;;;;;;5.49;100.00;102449.59;5048619;28;20033;-78
2024/02/20 00:50:40;;;;;;;22.20;4.90;;;;;;;5.44;100.00;102457.56;5030035;28;20060;-79
2024/02/20 00:53:05;;;;;;;29.73;6.10;;;;;;;5.42;100.00;102453.41;5032468;28;20484;-78
2024/02/20 00:55:31;;;;;;;32.30;4.72;;;;;;;5.48;100.00;102453.06;5029414;28;20033;-78
2024/02/20 00:57:59;;;;;;;26.88;4.50;;;;;;;5.44;100.00;102459.28;5010523;28;20095;-78
2024/02/20 01:00:25;;;;;;;46.78;5.38;;;;;;;5.43;100.00;102458.47;5043100;28;20029;-78
2024/02/20 01:02:51;;;;;;;29.48;4.72;;;;;;;5.38;100.00;102463.03;5028980;28;20021;-78
2024/02/20 01:05:16;;;;;;;34.60;5.90;;;;;;;5.44;100.00;102456.72;5028184;28;20043;-77
2024/02/20 01:07:42;;;;;;;35.17;5.05;;;;;;;5.44;100.00;102454.16;5028009;28;20128;-78
2024/02/20 01:10:08;;;;;;;29.27;4.45;;;;;;;5.43;100.00;102460.22;5018351;28;20135;-78
2024/02/20 01:12:34;;;;;;;35.65;5.13;;;;;;;5.45;100.00;102455.81;5044438;28;20045;-77
2024/02/20 01:14:59;;;;;;;32.00;5.38;;;;;;;5.41;100.00;102457.72;5032473;28;20082;-78
2024/02/20 01:17:26;;;;;;;38.88;5.82;;;;;;;5.48;100.00;102460.78;5028551;28;20037;-77
2024/02/20 01:19:51;;;;;;;24.50;4.78;;;;;;;5.46;100.00;102467.75;5046671;28;20025;-78
2024/02/20 01:22:17;;;;;;;26.33;4.88;;;;;;;5.42;100.00;102463.69;5030688;28;20413;-78
2024/02/20 01:24:42;;;;;;;36.60;6.38;;;;;;;5.38;100.00;102457.06;5045422;28;20028;-78
2024/02/20 01:27:08;;;;;;;33.83;5.50;;;;;;;5.39;100.00;102453.59;5031613;28;20407;-78
2024/02/20 01:29:33;;;;;;;32.28;6.10;;;;;;;5.35;100.00;102460.63;5026731;28;20471;-77
2024/02/20 01:31:59;;;;;;;29.33;5.45;;;;;;;5.35;100.00;102457.19;5028609;28;20048;-78
2024/02/20 01:34:24;;;;;;;41.20;6.15;;;;;;;5.31;100.00;102453.97;5029199;28;20037;-78
2024/02/20 01:36:52;;;;;;;46.95;8.77;;;;;;;5.39;100.00;102451.81;5043943;28;20132;-78
2024/02/20 01:39:18;;;;;;;41.28;6.80;;;;;;;5.42;100.00;102459.38;5026818;28;20032;-81
2024/02/20 01:41:43;;;;;;;38.38;6.03;;;;;;;5.41;100.00;102468.00;5027519;28;20040;-78
2024/02/20 01:44:09;;;;;;;33.75;7.20;;;;;;;5.45;100.00;102463.53;5003045;28;20206;-78
2024/02/20 01:46:34;;;;;;;35.17;7.57;;;;;;;5.50;100.00;102464.13;5027339;28;20065;-78
2024/02/20 01:49:00;;;;;;;35.42;7.05;;;;;;;5.42;100.00;102461.13;5029050;28;20453;-78
2024/02/20 01:51:26;;;;;;;46.45;8.40;;;;;;;5.44;100.00;102467.00;5023743;28;20081;-78
2024/02/20 01:53:52;;;;;;;31.80;7.53;;;;;;;5.42;100.00;102468.84;5045539;28;20044;-78
2024/02/20 01:56:18;;;;;;;44.65;7.47;;;;;;;5.46;100.00;102462.59;5026102;28;20558;-78
2024/02/20 01:58:44;;;;;;;36.00;7.00;;;;;;;5.41;100.00;102457.72;5010630;28;20040;-78
2024/02/20 02:01:10;;;;;;;31.63;6.50;;;;;;;5.47;100.00;102462.53;5025997;28;20528;-78
2024/02/20 02:03:38;;;;;;;31.48;6.25;;;;;;;5.59;100.00;102467.94;5011823;28;20041;-78
2024/02/20 02:06:04;;;;;;;43.13;7.30;;;;;;;5.52;100.00;102464.03;5028244;28;20045;-78
2024/02/20 02:08:29;;;;;;;32.60;7.00;;;;;;;5.43;100.00;102466.19;5031924;28;20450;-78
2024/02/20 02:10:55;;;;;;;30.33;6.10;;;;;;;5.43;100.00;102467.94;5031061;28;20602;-78
2024/02/20 02:13:20;;;;;;;29.20;7.22;;;;;;;5.41;100.00;102464.63;5012402;28;20373;-79
2024/02/20 02:15:46;;;;;;;43.78;7.28;;;;;;;5.37;100.00;102465.66;5025449;28;20103;-78
2024/02/20 02:18:11;;;;;;;24.20;5.78;;;;;;;5.36;100.00;102471.75;5028041;28;20037;-80
2024/02/20 02:20:37;;;;;;;33.45;6.93;;;;;;;5.34;100.00;102468.41;5026717;28;20041;-78
2024/02/20 02:23:02;;;;;;;34.17;6.97;;;;;;;5.41;100.00;102465.44;5011111;28;20407;-78
2024/02/20 02:25:28;;;;;;;30.80;6.50;;;;;;;5.37;100.00;102470.81;5026711;28;20176;-78
2024/02/20 02:27:53;;;;;;;30.35;6.53;;;;;;;5.34;100.00;102479.53;5025675;28;20040;-78
2024/02/20 02:30:20;;;;;;;39.33;7.90;;;;;;;5.37;100.00;102475.97;5024367;28;20041;-78
2024/02/20 02:32:45;;;;;;;40.85;9.35;;;;;;;5.38;100.00;102473.31;5042573;28;20126;-77
2024/02/20 02:35:11;;;;;;;45.15;7.53;;;;;;;5.41;100.00;102477.47;5009900;28;20033;-78
2024/02/20 02:37:36;;;;;;;31.33;6.60;;;;;;;5.33;100.00;102474.47;5003627;28;20125;-78
2024/02/20 02:40:06;;;;;;;41.88;7.15;;;;;;;5.34;100.00;102484.69;5024649;28;20419;-78
2024/02/20 02:42:32;;;;;;;34.72;6.90;;;;;;;5.36;100.00;102474.31;5028363;28;20467;-78
2024/02/20 02:44:57;;;;;;;30.08;8.27;;;;;;;5.40;100.00;102481.78;5045452;28;20032;-78
2024/02/20 02:47:23;;;;;;;39.83;7.00;;;;;;;5.35;100.00;102485.50;5013904;28;20053;-77
2024/02/20 02:49:48;;;;;;;31.58;6.28;;;;;;;5.35;100.00;102486.34;5029293;28;20021;-78
2024/02/20 02:52:15;;;;;;;34.63;6.60;;;;;;;5.26;100.00;102486.84;5030789;28;20111;-78
2024/02/20 02:54:40;;;;;;;41.78;6.40;;;;;;;5.33;100.00;102490.75;5033975;28;20083;-78
2024/02/20 02:57:06;;;;;;;30.27;6.57;;;;;;;5.30;100.00;102488.34;5028065;28;20045;-79
2024/02/20 02:59:31;;;;;;;28.40;7.03;;;;;;;5.32;100.00;102493.41;5032609;28;20524;-78
2024/02/20 03:01:57;;;;;;;38.25;8.85;;;;;;;5.27;100.00;102493.63;5014701;28;20040;-78
2024/02/20 03:04:22;;;;;;;31.00;6.82;;;;;;;5.31;100.00;102494.28;5049623;28;20033;-79
2024/02/20 03:06:50;;;;;;;38.10;7.00;;;;;;;5.21;100.00;102494.78;5030569;28;20036;-78
2024/02/20 03:09:18;;;;;;;41.85;8.40;;;;;;;5.30;100.00;102496.03;5037703;28;20063;-78
2024/02/20 03:11:43;;;;;;;42.72;7.18;;;;;;;5.29;100.00;102494.38;5029323;28;20060;-78
2024/02/20 03:14:10;;;;;;;37.53;6.80;;;;;;;5.31;100.00;102492.53;5030268;28;20017;-78
2024/02/20 03:16:36;;;;;;;44.28;7.47;;;;;;;5.35;100.00;102488.94;5047498;28;20082;-77
2024/02/20 03:19:01;;;;;;;48.10;7.18;;;;;;;5.34;100.00;102491.56;5013827;28;20555;-80
2024/02/20 03:21:27;;;;;;;36.40;7.68;;;;;;;5.28;100.00;102491.91;5027627;28;20447;-81
2024/02/20 03:23:53;;;;;;;28.10;6.07;;;;;;;5.28;100.00;102492.72;5015417;28;20564;-78
2024/02/20 03:26:18;;;;;;;31.77;7.68;;;;;;;5.23;100.00;102498.09;5042919;28;20044;-77
2024/02/20 03:28:45;;;;;;;26.63;7.78;;;;;;;5.28;100.00;102495.28;5049939;28;20025;-78
2024/02/20 03:31:11;;;;;;;29.75;6.97;;;;;;;5.26;100.00;102497.13;5013755;28;20710;-78
2024/02/20 03:33:37;;;;;;;45.75;8.95;;;;;;;5.21;100.00;102499.91;5022458;28;20117;-78
2024/02/20 03:36:02;;;;;;;30.20;7.50;;;;;;;5.22;100.00;102509.31;5043558;28;20063;-78
2024/02/20 03:38:28;;;;;;;34.83;6.82;;;;;;;5.23;100.00;102513.53;5029324;28;20045;-78
2024/02/20 03:40:54;;;;;;;29.90;5.88;;;;;;;5.20;100.00;102508.56;5012067;28;20056;-78
2024/02/20 03:43:20;;;;;;;29.05;6.43;;;;;;;5.30;100.00;102505.50;5028343;28;20089;-78
2024/02/20 03:45:46;;;;;;;39.08;7.38;;;;;;;5.23;100.00;102508.38;5027955;28;20052;-78
2024/02/20 03:48:11;;;;;;;27.88;6.45;;;;;;;5.17;100.00;102511.28;5030189;28;20047;-78
2024/02/20 03:50:37;;;;;;;34.05;7.10;;;;;;;5.19;100.00;102509.44;5027130;28;20041;-78
2024/02/20 03:53:03;;;;;;;35.40;7.22;;;;;;;5.17;100.00;102508.72;5031071;28;20033;-78
2024/02/20 03:55:28;;;;;;;37.92;6.63;;;;;;;5.25;100.00;102506.59;5008154;28;20041;-78
2024/02/20 03:57:55;;;;;;;43.25;6.68;;;;;;;5.32;100.00;102501.13;5030683;28;20051;-78
2024/02/20 04:00:24;;;;;;;35.58;6.82;;;;;;;5.23;100.00;102495.53;5031456;28;20431;-78
2024/02/20 04:02:50;;;;;;;39.17;7.55;;;;;;;5.17;100.00;102495.03;5026896;28;20111;-78
2024/02/20 04:05:16;;;;;;;37.60;6.18;;;;;;;5.18;100.00;102501.81;5030310;28;20055;-78
2024/02/20 04:07:44;;;;;;;31.23;6.78;;;;;;;5.16;100.00;102501.06;5046985;28;20041;-78
2024/02/20 04:10:12;;;;;;;41.67;7.35;;;;;;;5.12;100.00;102495.25;5031764;28;20025;-78
2024/02/20 04:12:38;;;;;;;30.67;6.13;;;;;;;5.12;100.00;102495.25;5013866;28;20088;-78
2024/02/20 04:15:07;;;;;;;38.55;7.88;;;;;;;5.12;100.00;102499.56;5033092;28;20029;-78
2024/02/20 04:17:34;;;;;;;30.65;7.60;;;;;;;5.09;100.00;102500.56;5029672;28;20041;-77
2024/02/20 04:20:03;;;;;;;44.97;7.25;;;;;;;5.14;100.00;102501.16;5045425;28;20495;-77
2024/02/20 04:22:30;;;;;;;33.72;5.78;;;;;;;5.20;100.00;102502.59;5015804;28;20044;-78
2024/02/20 04:24:59;;;;;;;31.48;6.75;;;;;;;5.15;100.00;102496.84;5027927;28;20025;-78
2024/02/20 04:27:26;;;;;;;36.90;6.50;;;;;;;5.12;100.00;102502.13;5045480;28;20114;-78
2024/02/20 04:29:51;;;;;;;34.63;13.13;;;;;;;5.10;100.00;102498.81;5030473;28;20028;-78
2024/02/20 04:32:17;;;;;;;42.25;12.48;;;;;;;5.05;100.00;102497.31;5028431;28;20056;-77
2024/02/20 04:34:43;;;;;;;35.25;8.48;;;;;;;5.03;100.00;102506.84;5013428;28;20036;-78
2024/02/20 04:37:08;;;;;;;41.45;7.97;;;;;;;5.04;100.00;102503.34;5017093;28;20032;-78
2024/02/20 04:39:34;;;;;;;32.35;6.60;;;;;;;5.01;100.00;102500.09;5044407;28;20051;-77
2024/02/20 04:41:59;;;;;;;26.92;6.60;;;;;;;4.99;100.00;102501.94;5035527;28;20119;-78
2024/02/20 04:44:25;;;;;;;49.55;7.38;;;;;;;4.97;100.00;102496.88;5030473;28;20037;-77
2024/02/20 04:46:50;;;;;;;37.78;7.53;;;;;;;4.97;100.00;102501.19;5011936;28;20045;-78
2024/02/20 04:49:16;;;;;;;40.58;7.50;;;;;;;4.99;100.00;102492.50;5012356;28;20028;-78
2024/02/20 04:51:41;;;;;;;29.08;7.85;;;;;;;4.97;100.00;102496.03;5012529;28;20037;-77
2024/02/20 04:54:08;;;;;;;34.60;7.00;;;;;;;4.97;100.00;102499.47;5047085;28;20075;-78
2024/02/20 04:56:34;;;;;;;26.80;7.18;;;;;;;4.91;100.00;102502.31;5045928;28;20064;-77
2024/02/20 04:58:59;;;;;;;28.00;5.60;;;;;;;4.86;100.00;102502.56;5044758;28;20412;-77
2024/02/20 05:01:25;;;;;;;28.95;6.22;;;;;;;4.85;100.00;102500.88;5010534;28;20036;-77
2024/02/20 05:03:51;;;;;;;28.42;7.40;;;;;;;4.84;100.00;102498.38;5043522;28;20091;-78
2024/02/20 05:06:16;;;;;;;41.03;6.65;;;;;;;4.81;100.00;102507.09;5013963;28;20503;-77
2024/02/20 05:08:42;;;;;;;21.55;6.28;;;;;;;4.80;100.00;102508.03;5047525;28;20036;-78
2024/02/20 05:11:08;;;;;;;26.63;5.55;;;;;;;4.76;100.00;102509.06;5042821;28;20068;-78
2024/02/20 05:13:33;;;;;;;18.50;5.70;;;;;;;4.74;100.00;102503.16;5024891;28;20033;-78
2024/02/20 05:15:58;;;;;;;24.48;5.63;;;;;;;4.74;100.00;102504.91;5025308;28;20056;-77
2024/02/20 05:18:24;;;;;;;25.55;5.97;;;;;;;4.71;100.00;102508.47;5046455;28;20041;-77
2024/02/20 05:20:50;;;;;;;25.25;6.15;;;;;;;4.69;100.00;102512.88;5025755;28;20049;-77
2024/02/20 05:23:16;;;;;;;24.35;5.38;;;;;;;4.67;100.00;102510.38;5010658;28;20043;-78
2024/02/20 05:25:41;;;;;;;24.92;6.20;;;;;;;4.63;100.00;102514.00;5045777;28;20044;-77
2024/02/20 05:28:07;;;;;;;28.83;6.78;;;;;;;4.64;100.00;102515.63;5025884;28;20056;-78
2024/02/20 05:30:32;;;;;;;25.17;6.43;;;;;;;4.63;100.00;102510.56;5014955;28;20912;-78
2024/02/20 05:32:58;;;;;;;21.73;6.15;;;;;;;4.63;100.00;102516.56;5008860;28;20396;-78
2024/02/20 05:35:23;;;;;;;17.38;5.43;;;;;;;4.62;100.00;102508.91;5045827;28;20502;-77
2024/02/20 05:37:48;;;;;;;26.83;6.20;;;;;;;4.60;100.00;102506.41;5028012;28;20055;-78
2024/02/20 05:40:14;;;;;;;38.80;6.68;;;;;;;4.60;100.00;102503.03;5028987;28;20028;-77
2024/02/20 05:42:40;;;;;;;30.27;7.13;;;;;;;4.60;100.00;102506.41;5025646;28;20024;-77
2024/02/20 05:45:06;;;;;;;22.45;5.72;;;;;;;4.58;100.00;102500.53;5046335;28;20035;-77
2024/02/20 05:47:34;;;;;;;26.98;6.00;;;;;;;4.58;100.00;102503.09;5028810;28;20048;-77
2024/02/20 05:50:00;;;;;;;20.77;6.97;;;;;;;4.62;100.00;102503.78;5030148;28;20032;-77
2024/02/20 05:52:26;;;;;;;28.65;7.50;;;;;;;4.60;100.00;102497.91;5028132;28;20055;-77
2024/02/20 05:54:51;;;;;;;28.88;7.35;;;;;;;4.57;100.00;102488.56;5048102;28;20434;-77
2024/02/20 05:57:17;;;;;;;33.03;8.95;;;;;;;4.60;100.00;102496.16;5042891;28;20427;-78
2024/02/20 05:59:42;;;;;;;39.95;9.02;;;;;;;4.62;100.00;102503.78;5043896;28;20040;-77
2024/02/20 06:02:08;;;;;;;49.95;13.20;;;;;;;4.63;100.00;102496.00;5028508;28;20523;-77
2024/02/20 06:04:35;;;;;;;56.92;14.00;;;;;;;4.64;100.00;102496.81;5026873;28;20044;-77
2024/02/20 06:07:00;;;;;;;37.65;11.32;;;;;;;4.65;100.00;102499.31;5027072;28;20454;-77
2024/02/20 06:09:26;;;;;;;45.20;10.82;;;;;;;4.71;100.00;102499.91;5030988;28;20036;-78
2024/02/20 06:11:51;;;;;;;49.88;11.73;;;;;;;4.68;100.00;102490.63;5044521;28;20447;-79
2024/02/20 06:14:17;;;;;;;55.38;12.60;;;;;;;4.65;100.00;102495.91;5029746;28;20040;-78
2024/02/20 06:16:42;;;;;;;42.40;13.10;;;;;;;4.72;100.00;102499.84;5014370;28;20045;-78
2024/02/20 06:19:08;;;;;;;53.13;13.05;;;;;;;4.77;100.00;102500.44;5029066;28;20087;-77
2024/02/20 06:21:33;;;;;;;45.65;13.57;;;;;;;4.83;100.00;102504.44;5046482;28;20041;-77
2024/02/20 06:23:59;;;;;;;50.58;14.80;;;;;;;4.81;100.00;102496.00;5032110;28;20025;-77
2024/02/20 06:26:25;;;;;;;46.17;13.32;;;;;;;4.79;100.00;102505.53;5050826;28;20055;-77
2024/02/20 06:28:51;;;;;;;42.47;14.18;;;;;;;4.77;100.00;102518.44;5031481;28;20035;-77
2024/02/20 06:31:17;;;;;;;52.25;15.75;;;;;;;4.76;100.00;102514.19;5007096;28;20091;-77
2024/02/20 06:33:43;;;;;;;49.95;14.40;;;;;;;4.78;100.00;102516.69;5046072;28;20048;-78
2024/02/20 06:36:09;;;;;;;44.63;14.40;;;;;;;4.79;100.00;102508.91;5047160;28;20397;-78
2024/02/20 06:38:34;;;;;;;55.50;16.15;;;;;;;4.80;100.00;102510.59;5033411;28;20032;-77
2024/02/20 06:41:00;;;;;;;49.42;16.42;;;;;;;4.93;100.00;102512.53;5012335;28;20048;-77
2024/02/20 06:43:26;;;;;;;55.33;14.52;;;;;;;4.89;100.00;102509.28;5015614;28;20496;-77
2024/02/20 06:45:53;;;;;;;45.80;14.60;;;;;;;4.87;100.00;102517.06;5014421;28;20041;-78
2024/02/20 06:48:18;;;;;;;50.13;15.35;;;;;;;4.82;100.00;102516.47;5037190;28;20036;-77
2024/02/20 06:50:44;;;;;;;48.95;15.23;;;;;;;4.90;100.00;102517.81;5023610;28;20073;-77
2024/02/20 06:53:09;;;;;;;46.13;15.50;;;;;;;4.92;100.00;102523.75;5032724;28;20021;-77
2024/02/20 06:55:35;;;;;;;47.78;13.88;;;;;;;4.92;100.00;102518.59;5037251;28;20060;-77
2024/02/20 06:58:00;;;;;;;52.47;16.40;;;;;;;4.94;100.00;102514.19;5032599;28;20025;-77
2024/02/20 07:00:26;;;;;;;52.25;15.77;;;;;;;4.99;100.00;102513.06;5012083;28;20075;-78
2024/02/20 07:02:51;;;;;;;47.30;16.10;;;;;;;4.97;100.00;102519.16;5016744;28;21600;-77
2024/02/20 07:05:17;;;;;;;51.38;15.38;;;;;;;5.05;100.00;102520.47;5044982;28;20140;-77
2024/02/20 07:07:44;;;;;;;56.42;15.35;;;;;;;5.14;100.00;102526.88;5036913;28;20467;-77
2024/02/20 07:10:10;;;;;;;60.33;16.10;;;;;;;5.20;100.00;102528.31;5040868;28;20037;-77
2024/02/20 07:12:36;;;;;;;51.55;16.02;;;;;;;5.25;100.00;102532.31;5016280;28;20094;-78
2024/02/20 07:15:03;;;;;;;47.60;15.55;;;;;;;5.25;100.00;102526.31;5053341;28;20021;-78
2024/02/20 07:17:28;;;;;;;53.10;16.13;;;;;;;5.37;100.00;102524.84;5028006;28;20061;-77
2024/02/20 07:19:55;;;;;;;49.17;14.90;;;;;;;5.26;100.00;102523.66;5032863;28;20076;-77
2024/02/20 07:22:21;;;;;;;52.03;15.27;;;;;;;5.28;100.00;102525.34;5030497;28;20041;-77
2024/02/20 07:24:46;;;;;;;47.65;14.77;;;;;;;5.28;100.00;102526.16;5010374;28;20080;-77
2024/02/20 07:27:12;;;;;;;53.85;14.80;;;;;;;5.32;100.00;102521.69;5013129;28;20523;-77
2024/02/20 07:29:44;;;;;;;44.53;16.25;;;;;;;5.24;100.00;102524.66;5012209;28;20021;-77
2024/02/20 07:32:10;;;;;;;67.43;16.60;;;;;;;5.31;100.00;102528.56;5048771;28;20064;-77
2024/02/20 07:34:37;;;;;;;55.17;14.52;;;;;;;5.38;100.00;102532.47;5041649;28;20554;-78
2024/02/20 07:37:03;;;;;;;52.65;16.85;;;;;;;5.49;100.00;102541.41;5028503;28;20053;-77
2024/02/20 07:39:29;;;;;;;54.28;15.98;;;;;;;5.47;100.00;102541.47;5010786;28;20407;-78
2024/02/20 07:41:54;;;;;;;59.72;16.45;;;;;;;5.54;100.00;102534.25;5031419;28;20048;-77
2024/02/20 07:44:20;;;;;;;57.28;15.40;;;;;;;5.55;100.00;102530.78;5050170;28;20020;-78
2024/02/20 07:46:47;;;;;;;61.33;17.05;;;;;;;5.55;100.00;102531.59;5014751;28;20419;-77
2024/02/20 07:49:12;;;;;;;58.00;16.50;;;;;;;5.61;100.00;102530.44;5032531;28;20184;-77
2024/02/20 07:51:38;;;;;;;57.78;16.55;;;;;;;5.75;100.00;102530.56;5039811;28;20041;-77
2024/02/20 07:54:03;;;;;;;58.88;16.35;;;;;;;5.84;100.00;102529.25;5047422;28;20036;-77
2024/02/20 07:56:30;;;;;;;49.58;17.60;;;;;;;5.83;100.00;102530.13;5029784;28;20053;-77
2024/02/20 07:58:55;;;;;;;60.10;16.65;;;;;;;5.84;100.00;102531.81;5032055;28;20041;-77
2024/02/20 08:01:22;;;;;;;51.92;14.75;;;;;;;5.91;100.00;102527.97;5027730;28;20045;-77
2024/02/20 08:03:48;;;;;;;53.38;17.90;;;;;;;5.93;100.00;102528.72;5013888;28;20025;-77
2024/02/20 08:06:14;;;;;;;56.63;17.27;;;;;;;5.95;100.00;102534.66;5048399;28;20048;-77
2024/02/20 08:08:41;;;;;;;55.67;18.08;;;;;;;6.13;100.00;102542.28;5014664;28;20032;-78
2024/02/20 08:11:07;;;;;;;58.78;17.60;;;;;;;6.14;100.00;102544.78;5035226;28;20048;-77
2024/02/20 08:13:33;;;;;;;60.28;16.75;;;;;;;6.21;100.00;102546.09;5016246;28;20510;-78
2024/02/20 08:15:58;;;;;;;57.63;16.73;;;;;;;6.20;100.00;102547.03;5028691;28;20148;-77
2024/02/20 08:18:24;;;;;;;51.92;16.13;;;;;;;6.40;100.00;102545.06;5046764;28;20033;-77
2024/02/20 08:20:50;;;;;;;47.70;15.00;;;;;;;6.48;100.00;102542.06;5028956;28;20051;-77
2024/02/20 08:23:15;;;;;;;62.10;17.58;;;;;;;6.51;100.00;102542.72;5012873;28;20029;-78
2024/02/20 08:25:41;;;;;;;50.85;16.08;;;;;;;6.77;100.00;102556.69;5029195;28;20052;-77
2024/02/20 08:28:06;;;;;;;51.17;17.02;;;;;;;6.70;100.00;102550.22;5030290;28;20032;-76
2024/02/20 08:30:32;;;;;;;58.45;17.27;;;;;;;6.91;100.00;102561.09;5032635;28;20048;-76
2024/02/20 08:32:58;;;;;;;50.63;16.73;;;;;;;6.99;100.00;102565.78;5029415;28;20025;-77
2024/02/20 08:35:23;;;;;;;52.22;15.93;;;;;;;6.96;100.00;102560.81;5046729;28;20035;-77
2024/02/20 08:37:49;;;;;;;55.05;17.30;;;;;;;7.04;100.00;102562.94;5043772;28;20100;-78
2024/02/20 08:40:15;;;;;;;50.92;17.73;;;;;;;7.01;100.00;102553.63;5030601;28;20033;-77
2024/02/20 08:42:41;;;;;;;59.38;17.08;;;;;;;6.99;100.00;102556.31;5031566;28;20021;-77
2024/02/20 08:45:08;;;;;;;42.15;17.15;;;;;;;6.97;100.00;102557.31;5030675;28;20021;-77
2024/02/20 08:47:34;;;;;;;56.72;17.58;;;;;;;7.06;100.00;102556.75;5028825;28;20577;-77
2024/02/20 08:50:00;;;;;;;45.97;17.92;;;;;;;7.07;100.00;102558.44;5030931;28;20029;-78
2024/02/20 08:52:25;;;;;;;52.10;17.55;;;;;;;7.01;100.00;102553.63;5029479;28;20048;-78
2024/02/20 08:54:50;;;;;;;54.53;17.95;;;;;;;7.15;100.00;102557.97;5023119;28;20032;-77
2024/02/20 08:57:16;;;;;;;62.42;17.83;;;;;;;7.21;100.00;102561.03;5018633;28;20041;-77
2024/02/20 08:59:41;;;;;;;52.30;18.77;;;;;;;7.18;100.00;102561.19;5028883;28;20048;-78
2024/02/20 09:02:07;;;;;;;64.13;18.98;;;;;;;7.24;100.00;102562.59;5043319;28;20053;-78
2024/02/20 09:04:33;;;;;;;49.42;19.00;;;;;;;7.24;100.00;102564.34;5030264;28;20584;-77
2024/02/20 09:06:58;;;;;;;55.72;20.10;;;;;;;7.35;100.00;102567.94;5022701;28;20052;-77
2024/02/20 09:09:24;;;;;;;58.47;19.10;;;;;;;7.34;100.00;102560.28;5030825;28;20096;-77
2024/02/20 09:11:50;;;;;;;65.22;18.67;;;;;;;7.37;100.00;102555.78;5030094;28;20057;-77
2024/02/20 09:14:16;;;;;;;65.80;20.55;;;;;;;7.35;100.00;102562.78;5034611;28;20025;-76
2024/02/20 09:16:44;;;;;;;53.70;19.58;;;;;;;7.37;100.00;102560.94;5002769;28;20107;-77
2024/02/20 09:19:09;;;;;;;71.07;19.58;;;;;;;7.36;100.00;102558.44;5050364;28;20191;-77
2024/02/20 09:21:34;;;;;;;51.60;17.92;;;;;;;7.32;100.00;102562.94;5045267;28;20067;-77
2024/02/20 09:24:00;;;;;;;56.88;19.38;;;;;;;7.28;100.00;102552.91;5030782;28;20547;-78
2024/02/20 09:26:26;;;;;;;64.13;20.40;;;;;;;7.41;100.00;102552.06;5027996;28;20071;-77
2024/02/20 09:28:51;;;;;;;52.63;18.27;;;;;;;7.36;100.00;102555.84;5041794;28;20024;-77
2024/02/20 09:31:17;;;;;;;63.05;20.83;;;;;;;7.45;100.00;102552.72;5027902;28;20044;-77
2024/02/20 09:33:42;;;;;;;54.88;19.20;;;;;;;7.52;100.00;102558.38;5026486;28;20087;-77
2024/02/20 09:36:09;;;;;;;63.92;19.52;;;;;;;7.62;100.00;102548.28;5029096;28;20037;-77
2024/02/20 09:38:35;;;;;;;64.80;20.58;;;;;;;7.60;100.00;102546.63;5030690;28;20059;-78
2024/02/20 09:41:03;;;;;;;64.35;19.77;;;;;;;7.63;100.00;102550.78;5029673;28;20172;-77
2024/02/20 09:43:31;;;;;;;60.22;20.88;;;;;;;7.79;100.00;102553.25;5012353;28;20514;-77
2024/02/20 09:46:04;;;;;;;66.18;22.08;;;;;;;7.70;100.00;102548.66;5028773;28;20041;-77
2024/02/20 09:48:30;;;;;;;55.97;21.55;;;;;;;7.76;100.00;102553.44;5029523;28;20067;-77
2024/02/20 09:51:00;;;;;;;69.65;22.42;;;;;;;7.84;100.00;102551.22;5045853;28;20033;-77
2024/02/20 09:53:26;;;;;;;61.67;23.13;;;;;;;7.87;100.00;102563.09;5028311;28;20036;-78
2024/02/20 09:55:54;;;;;;;72.22;24.30;;;;;;;7.80;100.00;102553.16;5035288;28;20086;-77
2024/02/20 09:58:19;;;;;;;66.72;23.45;;;;;;;7.75;100.00;102550.03;5029293;28;20045;-77
2024/02/20 10:00:45;;;;;;;64.18;22.30;;;;;;;7.76;100.00;102550.84;5027771;28;20037;-77
2024/02/20 10:03:12;;;;;;;72.65;23.33;;;;;;;7.79;100.00;102561.00;5028602;28;20026;-77
2024/02/20 10:05:44;;;;;;;63.38;23.60;;;;;;;7.89;100.00;102551.78;5026416;28;20062;-77
2024/02/20 10:08:10;;;;;;;70.93;26.38;;;;;;;7.92;100.00;102559.31;5045957;28;20393;-77
2024/02/20 10:10:35;;;;;;;74.10;24.52;;;;;;;8.02;100.00;102564.72;5027472;28;20041;-77
2024/02/20 10:13:02;;;;;;;72.68;25.75;;;;;;;8.04;100.00;102552.53;5015172;28;21045;-77
2024/02/20 10:15:29;;;;;;;74.05;23.25;;;;;;;8.08;100.00;102566.09;5012433;28;20120;-77
2024/02/20 10:17:59;;;;;;;76.60;23.35;;;;;;;7.94;100.00;102560.03;5040783;28;20091;-77
2024/02/20 10:20:24;;;;;;;75.43;23.48;;;;;;;7.97;100.00;102556.44;5027572;28;20032;-77
2024/02/20 10:22:50;;;;;;;75.30;24.42;;;;;;;7.93;100.00;102553.22;5029343;28;20036;-77
2024/02/20 10:25:15;;;;;;;71.82;24.00;;;;;;;8.02;100.00;102554.38;5044606;28;20032;-77
2024/02/20 10:27:42;;;;;;;65.63;21.58;;;;;;;7.97;100.00;102553.88;5025297;28;20092;-78
2024/02/20 10:30:08;;;;;;;74.18;21.85;;;;;;;8.07;100.00;102554.94;5008489;28;20763;-77
2024/02/20 10:32:36;;;;;;;70.78;22.33;;;;;;;8.16;100.00;102550.94;5011244;28;20029;-77
2024/02/20 10:35:03;;;;;;;75.40;24.30;;;;;;;8.16;100.00;102553.53;5014448;28;20025;-77
2024/02/20 10:37:28;;;;;;;68.25;24.17;;;;;;;8.35;100.00;102546.25;5043750;28;20052;-77
2024/02/20 10:40:04;;;;;;;71.47;22.83;;;;;;;8.30;100.00;102543.13;5032022;28;20025;-77
2024/02/20 10:42:34;;;;;;;63.78;21.77;;;;;;;8.43;100.00;102542.38;5030991;28;20074;-77
2024/02/20 10:45:04;;;;;;;57.17;20.40;;;;;;;8.41;100.00;102539.03;5029521;28;20025;-77
2024/02/20 10:47:32;;;;;;;59.50;21.92;;;;;;;8.53;100.00;102533.94;5029372;28;20080;-77
2024/02/20 10:49:59;;;;;;;64.22;23.65;;;;;;;8.47;100.00;102533.50;5029011;28;20115;-77
2024/02/20 10:52:27;;;;;;;64.57;21.67;;;;;;;8.57;100.00;102532.81;5027935;28;20087;-78
2024/02/20 10:54:53;;;;;;;61.78;20.52;;;;;;;8.62;100.00;102537.66;5029529;28;20033;-77
2024/02/20 10:57:18;;;;;;;58.92;20.73;;;;;;;8.66;100.00;102525.34;5029559;28;20144;-76
2024/02/20 10:59:44;;;;;;;67.75;19.17;;;;;;;8.73;100.00;102529.19;5012567;28;20024;-77
2024/02/20 11:02:09;;;;;;;62.35;20.73;;;;;;;8.79;100.00;102515.84;5028766;28;20476;-78
2024/02/20 11:04:36;;;;;;;67.03;19.08;;;;;;;8.77;100.00;102520.31;5029427;28;20035;-77
2024/02/20 11:07:04;;;;;;;49.63;16.98;;;;;;;8.76;100.00;102516.06;5043353;28;20037;-77
2024/02/20 11:09:29;;;;;;;55.05;18.10;;;;;;;8.85;100.00;102515.44;5031604;28;20048;-78